WetterOnline ( https://www.wetteronline.de )

Wetter aktuell Friedrich-Wilhelm-Lübke-Koog

Aktuelles Wetter: Leck (17m)

6-stündlich | Neueste Meldungen
Ortszeit Temperatur Wetter
So, 18.08. 20:00 16.7° C bewölkt
So, 18.08. 14:00 16.7° C Regen
So, 18.08. 8:00 16.1° C bewölkt
So, 18.08. 2:00 14.7° C leicht bewölkt
Sa, 17.08. 20:00 18.1° C leicht bewölkt
Sa, 17.08. 14:00 18.0° C bewölkt
Sa, 17.08. 8:00 15.2° C leichter Regen
Sa, 17.08. 2:00 16.9° C leichter Regen
Ortszeit Temperatur Wetter
So, 18.08. 23:00 15.0° C wolkenlos
So, 18.08. 22:50 15.0° C wolkenlos
So, 18.08. 22:40 15.0° C wolkenlos
So, 18.08. 22:30 15.1° C leicht bewölkt
So, 18.08. 22:20 15.1° C leicht bewölkt
So, 18.08. 22:10 15.6° C wolkig
So, 18.08. 22:00 15.5° C leicht bewölkt
So, 18.08. 21:30 15.3° C wolkenlos
So, 18.08. 21:00 16.0° C fast wolkenlos
So, 18.08. 20:30 16.7° C bewölkt
So, 18.08. 20:00 16.7° C bewölkt
Ortszeit Relative Feuchte Sichtweite
So, 18.08. 20:00 84% 30 km
So, 18.08. 14:00 82% 30 km
So, 18.08. 8:00 99% 4.7 km
So, 18.08. 2:00 97% 25 km
Sa, 17.08. 20:00 79% 45 km
Sa, 17.08. 14:00 90% 28 km
Sa, 17.08. 8:00 94% 3.8 km
Sa, 17.08. 2:00 74% 23 km
Ortszeit Relative Feuchte Sichtweite
So, 18.08. 23:00 92% 30 km
So, 18.08. 22:50 92% -
So, 18.08. 22:40 91% -
So, 18.08. 22:30 92% 27 km
So, 18.08. 22:20 92% -
So, 18.08. 22:10 91% -
So, 18.08. 22:00 91% 26 km
So, 18.08. 21:30 90% 26 km
So, 18.08. 21:00 90% 26 km
So, 18.08. 20:30 88% 30 km
So, 18.08. 20:00 84% 30 km
Ortszeit Niederschlagsmenge Niederschlagsart
So, 18.08. 20:00 0.3 l/m2 in 12 Std. Regen
So, 18.08. 14:00 0.1 l/m2 in 6 Std. Regen
So, 18.08. 8:00 0.1 l/m2 in 12 Std. -
So, 18.08. 2:00 0.1 l/m2 in 6 Std. Regen
Sa, 17.08. 20:00 1 l/m2 in 12 Std. Sprühregen, Niederschlag
Sa, 17.08. 14:00 1 l/m2 in 6 Std. Regen
Sa, 17.08. 8:00 4 l/m2 in 12 Std. Regen
Sa, 17.08. 2:00 0.1 l/m2 in 6 Std. Regen
Ortszeit Niederschlagsmenge Niederschlagsart
So, 18.08. 23:00 0.0 l/m2 in 1 Std. Regen
So, 18.08. 22:50 keine Meldung -
So, 18.08. 22:40 keine Meldung -
So, 18.08. 22:30 0.0 l/m2 in 1 Std. -
So, 18.08. 22:20 keine Meldung -
So, 18.08. 22:10 keine Meldung -
So, 18.08. 22:00 0.0 l/m2 in 1 Std. -
So, 18.08. 21:30 0.0 l/m2 in 1 Std. -
So, 18.08. 21:00 0.1 l/m2 in 1 Std. Regen
So, 18.08. 20:30 0.1 l/m2 in 1 Std. Schneeregen
So, 18.08. 20:00 0.1 l/m2 in 1 Std. Regen
Ortszeit Stärke Spitze Richtung
km/h Bft. km/h Grad Sektor
So, 18.08. 20:00 14 3 36 230° SW
So, 18.08. 14:00 17 3 31 190° S
So, 18.08. 8:00 11 2 18 170° S
So, 18.08. 2:00 9 2 17 170° S
Sa, 17.08. 20:00 11 2 46 240° SW
Sa, 17.08. 14:00 22 4 43 200° S
Sa, 17.08. 8:00 22 4 40 160° S
Sa, 17.08. 2:00 13 3 24 160° S
Ortszeit Stärke Spitze Richtung
km/h Bft. km/h Grad Sektor
So, 18.08. 23:00 11 2 18 210° SW
So, 18.08. 22:50 11 2 - 210° SW
So, 18.08. 22:40 11 2 - 200° S
So, 18.08. 22:30 11 2 15 210° SW
So, 18.08. 22:20 11 2 - 210° SW
So, 18.08. 22:10 11 2 - 200° S
So, 18.08. 22:00 9 2 20 210° SW
So, 18.08. 21:30 9 2 20 220° SW
So, 18.08. 21:00 11 2 22 210° SW
So, 18.08. 20:30 14 3 22 230° SW
So, 18.08. 20:00 14 3 29 230° SW
Ortszeit Untergrenze Bedeckung Gattung
total tief tief mittel hoch
So, 18.08. 20:00 600 m 7/8 7/8 - - -
So, 18.08. 14:00 510 m 8/8 8/8 - - -
So, 18.08. 8:00 60 m 8/8 7/8 - - -
So, 18.08. 2:00 660 m 6/8 1/8 - - -
Sa, 17.08. 20:00 1410 m 1/8 4/8 - - -
Sa, 17.08. 14:00 330 m 7/8 7/8 - - -
Sa, 17.08. 8:00 450 m 8/8 8/8 - - -
Sa, 17.08. 2:00 1500 m 8/8 8/8 - - -
Ortszeit Bedeckungsgrad in Achtel und Wolkenuntergrenze
So, 18.08. 23:00 keine Wolken
So, 18.08. 22:50 keine Wolken
So, 18.08. 22:40 keine Wolken
So, 18.08. 22:30 1(540m)
So, 18.08. 22:20 1(540m) 2(750m)
So, 18.08. 22:10 3(570m) 4(750m) 5(960m)
So, 18.08. 22:00 2(570m) 3(750m) 5(960m)
So, 18.08. 21:30 keine Wolken
So, 18.08. 21:00 1(1230m)
So, 18.08. 20:30 3(1140m) 6(1380m) 7(2700m)
So, 18.08. 20:00 1(600m) 4(1500m) 7(2700m)
Ortszeit Luftdruck NN (hPa) Tendenz (hPa in 3 Std.)
So, 18.08. 20:00 1005 + 0,9
So, 18.08. 14:00 1004 - 0,1
So, 18.08. 8:00 1005 - 0,1
So, 18.08. 2:00 1005 + 0,2
Sa, 17.08. 20:00 1005 + 0,5
Sa, 17.08. 14:00 1005 + 0,2
Sa, 17.08. 8:00 1005 - 1,7
Sa, 17.08. 2:00 1009 - 2,0
Ortszeit Luftdruck NN (hPa) Tendenz (hPa in 3 Std.)
So, 18.08. 23:00 1006 + 1,7
So, 18.08. 22:50 1006 keine Meldung
So, 18.08. 22:40 1006 keine Meldung
So, 18.08. 22:30 1006 + 1,4
So, 18.08. 22:20 1006 keine Meldung
So, 18.08. 22:10 1006 keine Meldung
So, 18.08. 22:00 1006 + 1,5
So, 18.08. 21:30 1006 + 1,4
So, 18.08. 21:00 1005 + 0,9
So, 18.08. 20:30 1005 + 1,1
So, 18.08. 20:00 1005 + 0,9
Ortszeit Schneehöhe (cm)
So, 18.08. 20:00 -
So, 18.08. 14:00 -
So, 18.08. 8:00 -
So, 18.08. 2:00 -
Sa, 17.08. 20:00 -
Sa, 17.08. 14:00 -
Sa, 17.08. 8:00 -
Sa, 17.08. 2:00 -
Ortszeit Schneehöhe (cm)
So, 18.08. 23:00 -
So, 18.08. 22:50 -
So, 18.08. 22:40 -
So, 18.08. 22:30 -
So, 18.08. 22:20 -
So, 18.08. 22:10 -
So, 18.08. 22:00 -
So, 18.08. 21:30 -
So, 18.08. 21:00 -
So, 18.08. 20:30 -
So, 18.08. 20:00 -
Link zu dieser Seite / Seite empfehlen

Das Wetter in ...